createdAt,value
2022-09-02T00:01:29.062Z,21.20
2022-09-02T00:06:58.008Z,21.20
2022-09-02T00:09:49.018Z,21.20
2022-09-02T00:15:19.777Z,21.10
2022-09-02T00:18:15.609Z,21.10
2022-09-02T00:21:05.580Z,21.10
2022-09-02T00:23:56.458Z,21.00
2022-09-02T00:29:39.762Z,21.00
2022-09-02T00:32:30.805Z,21.00
2022-09-02T00:35:21.930Z,21.10
2022-09-02T00:38:14.086Z,21.10
2022-09-02T00:44:10.639Z,21.00
2022-09-02T00:47:03.573Z,21.00
2022-09-02T00:49:56.283Z,20.90
2022-09-02T00:55:29.932Z,20.90
2022-09-02T00:58:24.865Z,20.80
2022-09-02T01:01:15.916Z,20.80
2022-09-02T01:04:08.692Z,20.90
2022-09-02T01:10:01.319Z,20.90
2022-09-02T01:12:56.561Z,20.80
2022-09-02T01:15:58.975Z,20.80
2022-09-02T01:19:02.435Z,20.80
2022-09-02T01:22:03.500Z,20.90
2022-09-02T01:24:56.040Z,20.80
2022-09-02T01:27:48.264Z,20.80
2022-09-02T01:30:43.348Z,20.80
2022-09-02T01:36:12.097Z,20.80
2022-09-02T01:39:12.417Z,20.80
2022-09-02T01:42:10.234Z,20.80
2022-09-02T01:45:01.744Z,20.80
2022-09-02T01:47:53.590Z,20.80
2022-09-02T01:50:47.598Z,20.80
2022-09-02T01:53:38.951Z,20.80
2022-09-02T01:56:30.849Z,20.70
2022-09-02T01:59:24.036Z,20.70
2022-09-02T02:04:53.836Z,20.60
2022-09-02T02:07:45.899Z,20.60
2022-09-02T02:10:56.710Z,20.50
2022-09-02T02:13:55.537Z,20.50
2022-09-02T02:19:34.852Z,20.40
2022-09-02T02:22:39.477Z,20.40
2022-09-02T02:25:37.765Z,20.50
2022-09-02T02:31:09.415Z,20.40
2022-09-02T02:34:02.009Z,20.30
2022-09-02T02:36:53.625Z,20.20
2022-09-02T02:39:45.284Z,20.20
2022-09-02T02:45:19.029Z,20.10
2022-09-02T02:48:10.109Z,20.10
2022-09-02T02:51:01.310Z,20.10
2022-09-02T02:53:55.738Z,20.00
2022-09-02T02:59:26.961Z,20.10
2022-09-02T03:02:18.403Z,20.10
2022-09-02T03:05:13.377Z,20.10
2022-09-02T03:08:05.600Z,20.00
2022-09-02T03:10:58.303Z,20.00
2022-09-02T03:13:51.306Z,20.00
2022-09-02T03:19:22.938Z,19.90
2022-09-02T03:22:14.278Z,20.00
2022-09-02T03:25:06.098Z,20.00
2022-09-02T03:27:59.798Z,19.90
2022-09-02T03:30:51.873Z,19.90
2022-09-02T03:33:43.100Z,19.90
2022-09-02T03:39:26.511Z,19.90
2022-09-02T03:42:19.586Z,19.90
2022-09-02T03:45:15.077Z,19.80
2022-09-02T03:48:06.621Z,19.80
2022-09-02T03:51:08.444Z,19.80
2022-09-02T03:53:59.669Z,19.80
2022-09-02T03:59:30.940Z,19.70
2022-09-02T04:05:04.448Z,19.70
2022-09-02T04:07:57.545Z,19.80
2022-09-02T04:10:52.423Z,19.80
2022-09-02T04:13:43.871Z,19.70
2022-09-02T04:19:32.752Z,19.70
2022-09-02T04:22:37.761Z,19.70
2022-09-02T04:25:29.345Z,19.70
2022-09-02T04:28:20.905Z,19.60
2022-09-02T04:31:14.897Z,19.60
2022-09-02T04:36:46.921Z,19.60
2022-09-02T04:39:39.085Z,19.50
2022-09-02T04:42:38.092Z,19.50
2022-09-02T04:45:46.810Z,19.50
2022-09-02T04:51:30.470Z,19.50
2022-09-02T04:54:35.817Z,19.50
2022-09-02T05:00:09.168Z,19.50
2022-09-02T05:03:01.650Z,19.50
2022-09-02T05:06:08.574Z,19.50
2022-09-02T05:09:03.281Z,19.50
2022-09-02T05:12:01.142Z,19.50
2022-09-02T05:14:54.659Z,19.50
2022-09-02T05:17:46.858Z,19.50
2022-09-02T05:20:43.187Z,19.40
2022-09-02T05:23:35.586Z,19.30
2022-09-02T05:26:27.526Z,19.30
2022-09-02T05:31:58.915Z,19.30
2022-09-02T05:34:51.194Z,19.40
2022-09-02T05:40:28.955Z,19.50
2022-09-02T05:46:16.188Z,19.50
2022-09-02T05:49:21.734Z,19.50
2022-09-02T05:54:54.210Z,19.50
2022-09-02T05:57:50.427Z,19.50
2022-09-02T06:00:41.485Z,19.50
2022-09-02T06:03:33.549Z,19.50
2022-09-02T06:06:24.997Z,19.60
2022-09-02T06:09:18.546Z,19.60
2022-09-02T06:12:19.913Z,19.50
2022-09-02T06:15:12.528Z,19.60
2022-09-02T06:18:04.246Z,19.60
2022-09-02T06:21:20.794Z,19.70
2022-09-02T06:24:24.994Z,19.70
2022-09-02T06:27:16.536Z,19.80
2022-09-02T06:30:11.963Z,19.70
2022-09-02T06:33:04.439Z,19.80
2022-09-02T06:36:10.763Z,19.80
2022-09-02T06:39:03.174Z,19.80
2022-09-02T06:41:56.336Z,19.90
2022-09-02T06:44:49.161Z,19.90
2022-09-02T06:47:40.458Z,20.00
2022-09-02T06:50:32.224Z,20.00
2022-09-02T06:53:24.661Z,20.20
2022-09-02T06:56:15.617Z,20.30
2022-09-02T06:59:18.306Z,20.40
2022-09-02T07:02:11.564Z,20.40
2022-09-02T07:05:15.651Z,20.50
2022-09-02T07:08:08.336Z,20.60
2022-09-02T07:11:01.028Z,20.90
2022-09-02T07:13:54.379Z,21.50
2022-09-02T07:16:49.293Z,21.40
2022-09-02T07:19:41.219Z,21.60
2022-09-02T07:22:32.498Z,21.80
2022-09-02T07:25:25.764Z,21.60
2022-09-02T07:28:17.147Z,21.40
2022-09-02T07:31:11.140Z,21.30
2022-09-02T07:34:02.042Z,21.50
2022-09-02T07:36:53.717Z,21.90
2022-09-02T07:39:45.484Z,22.20
2022-09-02T07:42:38.407Z,22.30
2022-09-02T07:45:29.934Z,22.10
2022-09-02T07:51:42.393Z,22.20
2022-09-02T07:54:34.194Z,22.00
2022-09-02T07:57:26.436Z,22.00
2022-09-02T08:00:21.134Z,22.20
2022-09-02T08:03:26.157Z,22.40
2022-09-02T08:06:21.887Z,22.80
2022-09-02T08:09:12.722Z,22.80
2022-09-02T08:14:43.306Z,22.90
2022-09-02T08:17:35.004Z,22.90
2022-09-02T08:20:27.621Z,22.90
2022-09-02T08:23:36.675Z,22.90
2022-09-02T08:26:17.494Z,23.00
2022-09-02T08:29:09.596Z,23.30
2022-09-02T08:32:00.859Z,23.40
2022-09-02T08:34:51.987Z,23.50
2022-09-02T08:37:43.381Z,23.40
2022-09-02T08:40:38.268Z,23.50
2022-09-02T08:43:35.643Z,23.50
2022-09-02T08:46:28.971Z,23.60
2022-09-02T08:49:23.514Z,23.70
2022-09-02T08:52:17.920Z,23.90
2022-09-02T08:55:12.594Z,24.00
2022-09-02T08:58:03.992Z,24.30
2022-09-02T09:00:59.490Z,24.40
2022-09-02T09:04:01.783Z,24.50
2022-09-02T09:07:18.734Z,24.70
2022-09-02T09:10:16.364Z,24.60
2022-09-02T09:13:24.441Z,24.40
2022-09-02T09:16:15.910Z,24.50
2022-09-02T09:19:11.028Z,24.60
2022-09-02T09:22:03.828Z,24.80
2022-09-02T09:24:56.901Z,25.10
2022-09-02T09:27:48.536Z,25.10
2022-09-02T09:30:47.604Z,25.20
2022-09-02T09:34:10.035Z,25.30
2022-09-02T09:37:01.682Z,25.40
2022-09-02T09:39:54.077Z,25.60
2022-09-02T09:42:49.873Z,25.70
2022-09-02T09:45:43.259Z,25.70
2022-09-02T09:48:36.478Z,25.40
2022-09-02T09:51:27.946Z,25.30
2022-09-02T09:54:20.887Z,25.20
2022-09-02T09:57:23.565Z,25.10
2022-09-02T10:00:19.587Z,25.00
2022-09-02T10:03:13.964Z,25.10
2022-09-02T10:06:20.057Z,25.10
2022-09-02T10:09:29.145Z,25.00
2022-09-02T10:12:23.413Z,25.00
2022-09-02T10:15:15.110Z,24.90
2022-09-02T10:18:14.917Z,24.80
2022-09-02T10:21:20.588Z,24.90
2022-09-02T10:24:16.844Z,25.00
2022-09-02T10:27:17.901Z,25.10
2022-09-02T10:30:17.590Z,25.30
2022-09-02T10:33:20.644Z,25.30
2022-09-02T10:36:22.054Z,25.40
2022-09-02T10:42:03.068Z,25.70
2022-09-02T10:44:59.033Z,25.80
2022-09-02T10:47:55.743Z,25.70
2022-09-02T10:50:52.165Z,25.90
2022-09-02T10:53:50.886Z,26.00
2022-09-02T10:56:47.462Z,26.00
2022-09-02T10:59:44.068Z,25.90
2022-09-02T11:02:39.060Z,25.80
2022-09-02T11:05:33.329Z,25.80
2022-09-02T11:08:31.611Z,25.90
2022-09-02T11:11:25.127Z,26.00
2022-09-02T11:14:21.718Z,26.00
2022-09-02T11:17:18.442Z,25.90
2022-09-02T11:20:27.667Z,25.30
2022-09-02T11:26:08.121Z,24.50
2022-09-02T11:29:02.626Z,24.50
2022-09-02T11:32:11.346Z,24.30
2022-09-02T11:35:07.143Z,24.40
2022-09-02T11:38:02.745Z,24.50
2022-09-02T11:44:05.597Z,24.50
2022-09-02T11:47:11.740Z,24.60
2022-09-02T11:50:18.583Z,24.70
2022-09-02T11:53:20.546Z,24.80
2022-09-02T11:56:16.086Z,24.70
2022-09-02T11:59:21.550Z,24.80
2022-09-02T12:02:18.842Z,24.80
2022-09-02T12:05:50.058Z,24.70
2022-09-02T12:09:10.993Z,24.70
2022-09-02T12:12:02.384Z,24.60
2022-09-02T12:15:15.476Z,24.50
2022-09-02T12:18:13.678Z,24.60
2022-09-02T12:21:23.331Z,24.50
2022-09-02T12:24:25.520Z,24.40
2022-09-02T12:27:37.531Z,24.40
2022-09-02T12:31:06.746Z,24.70
2022-09-02T12:33:59.647Z,25.00
2022-09-02T12:36:53.855Z,25.30
2022-09-02T12:40:00.398Z,25.40
2022-09-02T12:42:56.662Z,25.50
2022-09-02T12:45:49.892Z,25.20
2022-09-02T12:48:53.261Z,25.00
2022-09-02T12:52:11.921Z,24.90
2022-09-02T12:55:15.886Z,24.90
2022-09-02T13:01:29.783Z,24.90
2022-09-02T13:04:35.240Z,25.10
2022-09-02T13:08:08.445Z,25.30
2022-09-02T13:11:56.137Z,25.30
2022-09-02T13:15:23.410Z,25.60
2022-09-02T13:18:48.625Z,25.90
2022-09-02T13:22:18.597Z,25.90
2022-09-02T13:25:52.709Z,25.70
2022-09-02T13:29:10.193Z,25.90
2022-09-02T13:32:17.240Z,25.80
2022-09-02T13:35:25.599Z,25.70
2022-09-02T13:38:27.468Z,25.80
2022-09-02T13:41:42.138Z,25.90
2022-09-02T13:45:11.577Z,26.10
2022-09-02T13:48:10.234Z,26.20
2022-09-02T13:54:22.496Z,27.30
2022-09-02T13:57:00.943Z,27.30
2022-09-02T13:59:53.556Z,26.90
2022-09-02T14:02:46.291Z,27.10
2022-09-02T14:05:45.326Z,27.70
2022-09-02T14:08:48.240Z,28.10
2022-09-02T14:11:44.113Z,28.90
2022-09-02T14:21:02.204Z,29.70
2022-09-02T14:24:05.354Z,30.10
2022-09-02T14:30:28.043Z,32.10
2022-09-02T14:33:31.709Z,33.20
2022-09-02T14:36:43.163Z,32.80
2022-09-02T14:39:34.872Z,33.30
2022-09-02T14:42:29.294Z,33.80
2022-09-02T14:45:30.270Z,34.30
2022-09-02T14:48:24.473Z,35.00
2022-09-02T14:51:22.578Z,35.70
2022-09-02T14:54:39.869Z,35.50
2022-09-02T14:57:35.659Z,35.90
2022-09-02T15:03:49.002Z,37.20
2022-09-02T15:06:53.321Z,37.30
2022-09-02T15:09:46.309Z,37.80
2022-09-02T15:13:02.975Z,38.20
2022-09-02T15:16:27.417Z,38.70
2022-09-02T15:19:26.094Z,38.70
2022-09-02T15:22:18.508Z,37.90
2022-09-02T15:25:12.338Z,38.70
2022-09-02T15:28:03.925Z,38.90
2022-09-02T15:31:02.287Z,38.30
2022-09-02T15:33:53.943Z,38.90
2022-09-02T15:36:45.613Z,38.20
2022-09-02T15:39:38.159Z,37.30
2022-09-02T15:42:29.220Z,38.00
2022-09-02T15:45:21.384Z,38.00
2022-09-02T15:48:13.017Z,38.40
2022-09-02T15:51:09.185Z,37.60
2022-09-02T15:54:04.146Z,37.50
2022-09-02T15:57:07.791Z,37.60
2022-09-02T16:00:00.246Z,37.90
2022-09-02T16:03:00.848Z,38.70
2022-09-02T16:06:14.250Z,38.50
2022-09-02T16:09:31.839Z,36.50
2022-09-02T16:12:35.974Z,34.40
2022-09-02T16:15:52.504Z,33.00
2022-09-02T16:18:56.656Z,32.30
2022-09-02T16:21:53.804Z,31.80
2022-09-02T16:24:47.448Z,31.60
2022-09-02T16:27:58.387Z,31.40
2022-09-02T16:34:17.902Z,31.50
2022-09-02T16:37:25.208Z,32.40
2022-09-02T16:40:35.398Z,33.10
2022-09-02T16:43:36.550Z,34.00
2022-09-02T16:49:12.724Z,34.70
2022-09-02T16:52:05.825Z,35.00
2022-09-02T16:54:57.283Z,34.80
2022-09-02T16:57:48.536Z,34.30
2022-09-02T17:00:56.473Z,33.50
2022-09-02T17:03:59.808Z,32.90
2022-09-02T17:06:51.306Z,31.90
2022-09-02T17:09:42.841Z,31.20
2022-09-02T17:12:37.463Z,30.40
2022-09-02T17:15:28.830Z,30.00
2022-09-02T17:18:30.774Z,29.50
2022-09-02T17:21:26.139Z,29.10
2022-09-02T17:24:24.825Z,28.90
2022-09-02T17:27:16.488Z,28.70
2022-09-02T17:30:11.141Z,28.40
2022-09-02T17:33:02.808Z,28.30
2022-09-02T17:35:58.477Z,28.20
2022-09-02T17:38:50.528Z,28.00
2022-09-02T17:42:01.097Z,27.80
2022-09-02T17:44:52.670Z,27.60
2022-09-02T17:47:44.053Z,27.50
2022-09-02T17:50:35.753Z,27.30
2022-09-02T17:53:27.106Z,27.10
2022-09-02T17:56:26.569Z,26.90
2022-09-02T17:59:27.570Z,26.80
2022-09-02T18:02:34.651Z,26.60
2022-09-02T18:05:29.625Z,26.60
2022-09-02T18:08:32.909Z,26.50
2022-09-02T18:11:25.260Z,26.40
2022-09-02T18:14:22.251Z,26.20
2022-09-02T18:17:20.885Z,26.00
2022-09-02T18:20:18.625Z,25.90
2022-09-02T18:23:43.715Z,26.00
2022-09-02T18:26:54.374Z,25.90
2022-09-02T18:30:02.073Z,25.70
2022-09-02T18:36:14.944Z,25.50
2022-09-02T18:39:17.225Z,25.40
2022-09-02T18:42:15.731Z,25.30
2022-09-02T18:45:10.352Z,25.10
2022-09-02T18:48:04.642Z,25.10
2022-09-02T18:50:59.507Z,25.00
2022-09-02T18:53:53.542Z,24.90
2022-09-02T18:56:48.663Z,24.90
2022-09-02T18:59:44.892Z,24.90
2022-09-02T19:02:39.875Z,24.90
2022-09-02T19:05:33.184Z,24.80
2022-09-02T19:08:34.999Z,24.70
2022-09-02T19:11:41.444Z,24.50
2022-09-02T19:14:33.556Z,24.50
2022-09-02T19:17:31.859Z,24.50
2022-09-02T19:20:33.979Z,24.40
2022-09-02T19:23:32.610Z,24.30
2022-09-02T19:26:25.392Z,24.20
2022-09-02T19:29:19.064Z,24.20
2022-09-02T19:32:13.295Z,24.20
2022-09-02T19:35:09.520Z,24.20
2022-09-02T19:38:00.656Z,24.20
2022-09-02T19:41:02.700Z,24.10
2022-09-02T19:44:13.690Z,24.10
2022-09-02T19:49:48.794Z,23.90
2022-09-02T19:52:47.090Z,23.80
2022-09-02T19:55:38.774Z,23.70
2022-09-02T19:58:39.381Z,23.70
2022-09-02T20:04:47.479Z,23.60
2022-09-02T20:07:45.167Z,23.50
2022-09-02T20:10:43.023Z,23.50
2022-09-02T20:13:41.746Z,23.40
2022-09-02T20:16:33.430Z,23.40
2022-09-02T20:19:26.670Z,23.40
2022-09-02T20:22:18.937Z,23.40
2022-09-02T20:28:08.861Z,23.50
2022-09-02T20:31:10.655Z,23.40
2022-09-02T20:34:04.830Z,23.20
2022-09-02T20:37:08.512Z,22.80
2022-09-02T20:40:30.947Z,22.60
2022-09-02T20:43:54.826Z,22.70
2022-09-02T20:46:56.224Z,22.60
2022-09-02T20:49:57.118Z,22.40
2022-09-02T20:53:03.936Z,22.40
2022-09-02T20:56:12.119Z,22.20
2022-09-02T20:59:05.986Z,22.10
2022-09-02T21:02:05.708Z,22.10
2022-09-02T21:05:08.225Z,22.00
2022-09-02T21:08:04.610Z,21.80
2022-09-02T21:10:59.129Z,21.80
2022-09-02T21:14:00.453Z,21.80
2022-09-02T21:17:02.645Z,21.70
2022-09-02T21:19:58.551Z,21.60
2022-09-02T21:22:52.634Z,21.60
2022-09-02T21:25:50.868Z,21.50
2022-09-02T21:28:44.712Z,21.40
2022-09-02T21:34:22.256Z,21.10
2022-09-02T21:37:17.996Z,21.00
2022-09-02T21:40:13.291Z,20.90
2022-09-02T21:43:13.665Z,20.90
2022-09-02T21:46:09.085Z,20.90
2022-09-02T21:49:07.500Z,20.80
2022-09-02T21:52:01.826Z,20.80
2022-09-02T21:55:09.458Z,20.60
2022-09-02T21:58:15.627Z,20.70
2022-09-02T22:01:10.775Z,20.70
2022-09-02T22:04:05.253Z,20.70
2022-09-02T22:07:00.739Z,20.70
2022-09-02T22:10:03.890Z,20.60
2022-09-02T22:13:04.859Z,20.60
2022-09-02T22:16:00.670Z,20.60
2022-09-02T22:18:57.776Z,20.60
2022-09-02T22:21:55.713Z,20.50
2022-09-02T22:24:48.155Z,20.40
2022-09-02T22:27:44.027Z,20.30
2022-09-02T22:30:37.677Z,20.20
2022-09-02T22:33:34.072Z,20.20
2022-09-02T22:39:16.709Z,20.10
2022-09-02T22:42:10.565Z,20.00
2022-09-02T22:45:23.627Z,20.00
2022-09-02T22:48:36.072Z,20.10
2022-09-02T22:51:47.520Z,20.10
2022-09-02T22:54:38.369Z,20.00
2022-09-02T22:57:42.102Z,20.00
2022-09-02T23:00:37.956Z,19.90
2022-09-02T23:03:32.728Z,19.80
2022-09-02T23:09:40.318Z,19.80
2022-09-02T23:12:41.366Z,19.80
2022-09-02T23:15:37.002Z,19.80
2022-09-02T23:18:33.738Z,19.80
2022-09-02T23:21:30.201Z,19.60
2022-09-02T23:24:24.533Z,19.60
2022-09-02T23:27:23.120Z,19.60
2022-09-02T23:30:14.706Z,19.60
2022-09-02T23:33:13.948Z,19.60
2022-09-02T23:36:11.005Z,19.60
2022-09-02T23:39:11.195Z,19.60
2022-09-02T23:42:02.532Z,19.50
2022-09-02T23:44:54.854Z,19.50
2022-09-02T23:47:49.879Z,19.50
2022-09-02T23:50:47.191Z,19.70
2022-09-02T23:53:41.610Z,19.70
2022-09-02T23:56:40.829Z,19.70
